Weather at Hoedspruit Air Force Base Airport

Public forecast

Using degrees Celsius for public forecast. Weather courtesy of forecast.io.

Current aviation weather report (METAR) for Hoedspruit Air Force Base Airport

Report is more than 6 hours old.

Retrieved 2020/09/24 19:00 UTC (2 days ago):

FAHS 241900Z AUTO 08004KT //// // ////// 24/12 Q1018

Aviation forecast (TAF) for Hoedspruit Air Force Base Airport

Forecast is more than 12 hours old.

Retrieved 2017/05/23 04:01 UTC (3 years ago):

TAF FAHS 230300Z 2304/2315 VRB02KT CAVOK TX29/2312ZTN12/2304Z